Terminal Aerodrome Forecast
Issued by NWS Wichita, KS

Home | Current Version | Previous Version | Text Only | Print | Product List | Glossary On
Versions: 1 2 3 4 5 6 7 8 9 10 11 12 13 14 15 16 17 18 19
000
FTUS43 KICT 240500
TAFICT
TAF
KICT 240520Z 2406/2506 17025G35KT P6SM SCT080 SCT250
     FM241000 20018KT P6SM VCTS BKN025CB
     FM241130 33021G30KT 5SM -TSRA BKN025CB
     FM241430 33020G30KT P6SM SCT025 BKN080
     FM242100 33018G26KT P6SM SKC=

USA.gov is the U.S. government's official web portal to all federal, state and local government web resources and services.